createdAt,value
2023-02-24T00:02:20.343Z,45.47
2023-02-24T00:05:23.832Z,42.75
2023-02-24T00:08:26.178Z,41.70
2023-02-24T00:11:28.404Z,42.88
2023-02-24T00:14:34.480Z,43.00
2023-02-24T00:17:38.701Z,43.45
2023-02-24T00:20:41.071Z,43.13
2023-02-24T00:23:47.160Z,42.92
2023-02-24T00:26:59.554Z,44.65
2023-02-24T00:30:01.938Z,44.25
2023-02-24T00:33:07.011Z,44.47
2023-02-24T00:36:12.490Z,43.70
2023-02-24T00:39:14.721Z,44.75
2023-02-24T00:42:17.402Z,44.47
2023-02-24T00:45:19.562Z,44.28
2023-02-24T00:48:21.796Z,44.90
2023-02-24T00:51:27.301Z,45.53
2023-02-24T00:54:30.246Z,41.67
2023-02-24T00:57:33.623Z,43.58
2023-02-24T01:00:36.988Z,44.13
2023-02-24T01:03:39.290Z,45.13
2023-02-24T01:06:46.853Z,44.33
2023-02-24T01:09:50.996Z,44.70
2023-02-24T01:12:54.241Z,44.80
2023-02-24T01:16:02.436Z,45.70
2023-02-24T01:19:05.956Z,45.50
2023-02-24T01:22:10.286Z,45.95
2023-02-24T01:25:12.617Z,44.63
2023-02-24T01:28:14.803Z,43.75
2023-02-24T01:31:21.349Z,43.63
2023-02-24T01:34:27.576Z,43.53
2023-02-24T01:37:33.068Z,42.85
2023-02-24T01:40:35.412Z,45.08
2023-02-24T01:44:14.039Z,44.92
2023-02-24T01:47:18.631Z,44.80
2023-02-24T01:50:23.536Z,44.30
2023-02-24T01:53:27.389Z,45.15
2023-02-24T01:56:32.431Z,45.92
2023-02-24T01:59:38.199Z,44.40
2023-02-24T02:02:44.078Z,45.72
2023-02-24T02:05:49.753Z,44.78
2023-02-24T02:08:52.632Z,44.75
2023-02-24T02:11:54.898Z,47.25
2023-02-24T02:14:59.611Z,44.45
2023-02-24T02:18:38.493Z,46.72
2023-02-24T02:21:52.016Z,44.50
2023-02-24T02:25:09.741Z,44.70
2023-02-24T02:28:33.606Z,45.10
2023-02-24T02:31:51.547Z,44.30
2023-02-24T02:35:19.292Z,43.88
2023-02-24T02:38:38.133Z,44.05
2023-02-24T02:42:04.998Z,42.60
2023-02-24T02:45:27.929Z,43.67
2023-02-24T02:48:41.305Z,46.40
2023-02-24T02:51:53.970Z,45.33
2023-02-24T02:55:10.035Z,45.33
2023-02-24T02:58:20.284Z,43.17
2023-02-24T03:04:30.416Z,42.35
2023-02-24T03:07:40.727Z,43.00
2023-02-24T03:13:51.119Z,43.70
2023-02-24T03:16:56.393Z,44.30
2023-02-24T03:20:13.180Z,46.40
2023-02-24T03:23:22.097Z,44.50
2023-02-24T03:26:38.070Z,44.08
2023-02-24T03:29:55.576Z,42.67
2023-02-24T03:33:20.088Z,43.78
2023-02-24T03:36:23.337Z,43.53
2023-02-24T03:39:26.072Z,43.92
2023-02-24T03:42:44.733Z,43.40
2023-02-24T03:45:47.091Z,45.35
2023-02-24T03:48:59.559Z,43.72
2023-02-24T03:52:27.271Z,43.08
2023-02-24T03:56:03.899Z,42.63
2023-02-24T03:59:35.320Z,40.17
2023-02-24T04:02:37.713Z,41.20
2023-02-24T04:05:53.127Z,45.55
2023-02-24T04:09:26.795Z,42.45
2023-02-24T04:12:56.075Z,41.30
2023-02-24T04:16:09.073Z,42.83
2023-02-24T04:19:17.515Z,41.05
2023-02-24T04:22:24.805Z,43.30
2023-02-24T04:25:29.482Z,44.05
2023-02-24T04:28:33.977Z,41.45
2023-02-24T04:31:39.316Z,44.85
2023-02-24T04:34:42.663Z,41.10
2023-02-24T04:37:44.979Z,42.45
2023-02-24T04:40:49.917Z,41.55
2023-02-24T04:43:52.215Z,41.83
2023-02-24T04:46:54.510Z,42.92
2023-02-24T04:49:57.451Z,43.83
2023-02-24T04:53:02.500Z,43.75
2023-02-24T04:56:09.346Z,41.20
2023-02-24T04:59:12.248Z,43.60
2023-02-24T05:02:18.266Z,43.40
2023-02-24T05:05:27.767Z,43.47
2023-02-24T05:08:31.149Z,43.28
2023-02-24T05:11:35.017Z,44.95
2023-02-24T05:14:39.515Z,42.90
2023-02-24T05:17:42.057Z,43.60
2023-02-24T05:21:05.902Z,42.75
2023-02-24T05:24:08.624Z,41.13
2023-02-24T05:27:10.868Z,41.95
2023-02-24T05:30:14.669Z,42.00
2023-02-24T05:33:21.694Z,44.88
2023-02-24T05:36:25.429Z,43.88
2023-02-24T05:39:28.544Z,42.00
2023-02-24T05:42:35.138Z,42.42
2023-02-24T05:45:37.639Z,41.25
2023-02-24T05:48:40.049Z,42.53
2023-02-24T05:51:54.863Z,42.83
2023-02-24T05:54:57.495Z,43.28
2023-02-24T05:57:59.573Z,43.17
2023-02-24T06:01:08.903Z,41.47
2023-02-24T06:04:21.011Z,43.23
2023-02-24T06:07:25.854Z,41.60
2023-02-24T06:10:28.368Z,42.03
2023-02-24T06:13:30.594Z,42.15
2023-02-24T06:16:34.164Z,40.88
2023-02-24T06:19:36.628Z,40.85
2023-02-24T06:22:42.538Z,41.65
2023-02-24T06:25:45.066Z,42.15
2023-02-24T06:28:48.182Z,42.45
2023-02-24T06:31:50.436Z,41.97
2023-02-24T06:34:54.074Z,42.92
2023-02-24T06:37:56.408Z,41.80
2023-02-24T06:41:04.446Z,41.83
2023-02-24T06:44:06.786Z,42.20
2023-02-24T06:47:13.360Z,42.20
2023-02-24T06:50:23.536Z,42.47
2023-02-24T06:53:26.839Z,41.05
2023-02-24T06:56:30.797Z,43.33
2023-02-24T06:59:34.385Z,39.92
2023-02-24T07:02:39.777Z,40.65
2023-02-24T07:06:11.287Z,42.38
2023-02-24T07:09:16.167Z,41.53
2023-02-24T07:12:21.282Z,42.55
2023-02-24T07:15:23.598Z,41.00
2023-02-24T07:18:26.856Z,41.45
2023-02-24T07:21:31.105Z,41.97
2023-02-24T07:24:39.288Z,43.10
2023-02-24T07:27:42.858Z,42.25
2023-02-24T07:30:45.860Z,42.97
2023-02-24T07:33:48.796Z,43.35
2023-02-24T07:36:54.798Z,43.38
2023-02-24T07:39:57.358Z,43.55
2023-02-24T07:43:01.370Z,43.90
2023-02-24T07:46:14.434Z,43.30
2023-02-24T07:49:20.504Z,44.00
2023-02-24T07:52:22.951Z,45.50
2023-02-24T07:55:31.343Z,46.72
2023-02-24T07:58:34.436Z,43.00
2023-02-24T08:01:40.850Z,44.40
2023-02-24T08:04:50.222Z,44.88
2023-02-24T08:07:52.766Z,45.05
2023-02-24T08:11:04.182Z,44.45
2023-02-24T08:14:11.081Z,44.10
2023-02-24T08:17:18.925Z,44.38
2023-02-24T08:20:22.137Z,44.83
2023-02-24T08:23:24.444Z,46.78
2023-02-24T08:26:30.987Z,45.90
2023-02-24T08:29:40.465Z,45.53
2023-02-24T08:32:44.000Z,47.25
2023-02-24T08:35:50.800Z,48.20
2023-02-24T08:38:53.214Z,47.85
2023-02-24T08:41:56.146Z,47.20
2023-02-24T08:44:58.460Z,48.38
2023-02-24T08:48:00.882Z,46.80
2023-02-24T08:51:15.160Z,47.05
2023-02-24T08:54:27.463Z,48.28
2023-02-24T08:57:29.899Z,49.10
2023-02-24T09:00:50.698Z,48.08
2023-02-24T09:03:59.058Z,48.92
2023-02-24T09:07:11.714Z,48.78
2023-02-24T09:10:18.182Z,50.15
2023-02-24T09:13:20.357Z,51.30
2023-02-24T09:16:23.754Z,49.13
2023-02-24T09:19:41.164Z,49.65
2023-02-24T09:22:57.430Z,51.30
2023-02-24T09:26:11.241Z,49.10
2023-02-24T09:29:32.376Z,49.15
2023-02-24T09:32:35.108Z,49.42
2023-02-24T09:35:41.954Z,50.05
2023-02-24T09:39:01.566Z,50.05
2023-02-24T09:42:09.533Z,49.72
2023-02-24T09:45:33.459Z,49.00
2023-02-24T09:48:45.176Z,48.17
2023-02-24T09:51:53.489Z,46.47
2023-02-24T09:55:25.205Z,47.63
2023-02-24T09:58:43.830Z,45.70
2023-02-24T10:01:48.069Z,49.08
2023-02-24T10:05:07.564Z,48.60
2023-02-24T10:08:20.403Z,49.55
2023-02-24T10:11:33.422Z,48.70
2023-02-24T10:15:20.033Z,44.15
2023-02-24T10:18:33.251Z,47.33
2023-02-24T10:21:49.616Z,49.13
2023-02-24T10:25:11.079Z,45.85
2023-02-24T10:28:36.180Z,39.20
2023-02-24T10:31:57.943Z,41.63
2023-02-24T10:35:01.631Z,46.83
2023-02-24T10:38:05.599Z,45.70
2023-02-24T10:41:10.425Z,48.95
2023-02-24T10:44:20.083Z,45.88
2023-02-24T10:47:31.370Z,46.13
2023-02-24T10:50:55.115Z,47.50
2023-02-24T10:54:42.629Z,43.88
2023-02-24T10:57:59.279Z,40.30
2023-02-24T11:01:18.468Z,44.05
2023-02-24T11:04:33.878Z,42.97
2023-02-24T11:07:55.909Z,45.45
2023-02-24T11:11:07.305Z,41.17
2023-02-24T11:14:49.397Z,45.13
2023-02-24T11:17:57.179Z,43.53
2023-02-24T11:21:12.613Z,41.88
2023-02-24T11:24:19.175Z,45.80
2023-02-24T11:27:23.706Z,45.72
2023-02-24T11:30:49.902Z,45.72
2023-02-24T11:34:29.289Z,46.58
2023-02-24T11:37:43.161Z,40.47
2023-02-24T11:40:52.268Z,41.60
2023-02-24T11:44:07.300Z,35.88
2023-02-24T11:47:20.241Z,39.25
2023-02-24T11:50:37.108Z,43.97
2023-02-24T11:53:53.783Z,37.63
2023-02-24T11:56:59.497Z,36.70
2023-02-24T12:00:20.659Z,37.67
2023-02-24T12:03:35.376Z,40.05
2023-02-24T12:06:57.107Z,38.35
2023-02-24T12:10:16.647Z,36.40
2023-02-24T12:16:46.164Z,36.58
2023-02-24T12:20:07.455Z,37.53
2023-02-24T12:23:18.330Z,32.08
2023-02-24T12:26:42.814Z,38.33
2023-02-24T12:30:23.002Z,40.58
2023-02-24T12:36:49.264Z,32.70
2023-02-24T12:40:15.637Z,31.63
2023-02-24T12:43:29.578Z,37.08
2023-02-24T12:46:35.441Z,32.20
2023-02-24T12:49:37.532Z,33.35
2023-02-24T12:52:50.391Z,33.65
2023-02-24T12:56:04.454Z,35.78
2023-02-24T12:59:10.280Z,36.20
2023-02-24T13:02:30.697Z,35.88
2023-02-24T13:05:43.930Z,34.05
2023-02-24T13:08:58.942Z,30.85
2023-02-24T13:12:29.297Z,36.95
2023-02-24T13:15:31.676Z,33.95
2023-02-24T13:18:36.983Z,34.25
2023-02-24T13:21:40.102Z,33.08
2023-02-24T13:25:08.686Z,38.03
2023-02-24T13:28:24.369Z,37.65
2023-02-24T13:31:27.489Z,33.15
2023-02-24T13:34:43.477Z,32.78
2023-02-24T13:37:48.213Z,36.83
2023-02-24T13:40:50.999Z,36.05
2023-02-24T13:44:21.002Z,37.80
2023-02-24T13:47:32.412Z,38.17
2023-02-24T13:50:37.759Z,36.95
2023-02-24T13:53:57.717Z,35.88
2023-02-24T13:57:21.600Z,35.10
2023-02-24T14:00:26.484Z,38.08
2023-02-24T14:03:29.843Z,38.60
2023-02-24T14:06:32.311Z,38.92
2023-02-24T14:09:46.239Z,36.90
2023-02-24T14:12:49.888Z,37.17
2023-02-24T14:15:53.563Z,37.70
2023-02-24T14:18:57.961Z,38.97
2023-02-24T14:22:01.318Z,34.58
2023-02-24T14:25:05.437Z,33.60
2023-02-24T14:28:19.085Z,34.85
2023-02-24T14:31:23.409Z,38.25
2023-02-24T14:34:28.674Z,37.25
2023-02-24T14:37:31.781Z,31.73
2023-02-24T14:40:33.982Z,36.55
2023-02-24T14:43:43.060Z,29.77
2023-02-24T14:46:52.740Z,27.88
2023-02-24T14:50:03.060Z,25.85
2023-02-24T14:53:10.712Z,33.90
2023-02-24T14:56:13.879Z,35.10
2023-02-24T14:59:30.000Z,33.72
2023-02-24T15:02:33.692Z,35.20
2023-02-24T15:05:45.016Z,36.88
2023-02-24T15:08:50.748Z,34.63
2023-02-24T15:11:55.765Z,35.65
2023-02-24T15:15:04.801Z,35.75
2023-02-24T15:18:25.905Z,34.13
2023-02-24T15:21:40.399Z,35.53
2023-02-24T15:24:42.900Z,35.63
2023-02-24T15:28:01.896Z,34.05
2023-02-24T15:31:15.781Z,34.50
2023-02-24T15:34:25.544Z,35.15
2023-02-24T15:37:42.085Z,34.17
2023-02-24T15:40:53.104Z,34.75
2023-02-24T15:43:56.472Z,33.55
2023-02-24T15:47:01.037Z,33.53
2023-02-24T15:50:03.381Z,34.10
2023-02-24T15:53:05.618Z,32.58
2023-02-24T15:56:07.851Z,34.42
2023-02-24T15:59:17.981Z,32.65
2023-02-24T16:02:24.369Z,33.70
2023-02-24T16:05:26.972Z,35.42
2023-02-24T16:08:29.268Z,33.08
2023-02-24T16:11:39.123Z,32.22
2023-02-24T16:14:42.404Z,33.63
2023-02-24T16:17:45.834Z,32.05
2023-02-24T16:20:56.782Z,33.05
2023-02-24T16:23:59.176Z,32.75
2023-02-24T16:27:01.357Z,33.90
2023-02-24T16:30:04.324Z,33.20
2023-02-24T16:33:06.546Z,32.83
2023-02-24T16:36:13.413Z,33.58
2023-02-24T16:39:15.664Z,32.42
2023-02-24T16:42:20.194Z,35.15
2023-02-24T16:45:28.497Z,39.00
2023-02-24T16:48:34.762Z,35.33
2023-02-24T16:51:39.239Z,39.33
2023-02-24T16:54:41.441Z,37.60
2023-02-24T16:57:43.854Z,36.47
2023-02-24T17:00:49.998Z,40.15
2023-02-24T17:03:57.060Z,36.28
2023-02-24T17:06:59.320Z,37.05
2023-02-24T17:10:01.443Z,38.97
2023-02-24T17:13:03.536Z,37.53
2023-02-24T17:16:06.008Z,37.63
2023-02-24T17:19:08.931Z,36.35
2023-02-24T17:22:11.177Z,39.00
2023-02-24T17:25:19.760Z,41.08
2023-02-24T17:28:21.976Z,40.47
2023-02-24T17:31:24.294Z,41.00
2023-02-24T17:34:27.491Z,41.25
2023-02-24T17:37:29.756Z,41.47
2023-02-24T17:40:31.910Z,40.28
2023-02-24T17:43:34.090Z,39.25
2023-02-24T17:46:36.422Z,41.05
2023-02-24T17:49:39.813Z,42.10
2023-02-24T17:52:42.029Z,40.15
2023-02-24T17:56:01.644Z,36.78
2023-02-24T17:59:04.728Z,40.33
2023-02-24T18:02:07.114Z,40.08
2023-02-24T18:05:10.301Z,42.88
2023-02-24T18:08:14.363Z,38.15
2023-02-24T18:11:19.016Z,40.75
2023-02-24T18:14:21.642Z,40.13
2023-02-24T18:17:24.229Z,45.58
2023-02-24T18:20:26.384Z,42.58
2023-02-24T18:23:28.879Z,44.72
2023-02-24T18:26:31.866Z,43.80
2023-02-24T18:29:34.138Z,43.50
2023-02-24T18:32:36.517Z,42.85
2023-02-24T18:35:39.003Z,39.15
2023-02-24T18:38:41.712Z,43.20
2023-02-24T18:41:43.932Z,45.33
2023-02-24T18:44:46.250Z,44.08
2023-02-24T18:47:51.421Z,44.53
2023-02-24T18:50:54.696Z,44.05
2023-02-24T18:54:00.866Z,45.10
2023-02-24T18:57:03.264Z,43.53
2023-02-24T19:00:06.796Z,39.88
2023-02-24T19:03:08.970Z,40.42
2023-02-24T19:06:12.462Z,41.20
2023-02-24T19:09:15.126Z,40.75
2023-02-24T19:12:19.363Z,41.85
2023-02-24T19:15:22.605Z,41.05
2023-02-24T19:18:24.798Z,40.22
2023-02-24T19:21:28.956Z,38.50
2023-02-24T19:24:31.315Z,40.60
2023-02-24T19:27:33.478Z,40.80
2023-02-24T19:30:35.639Z,40.22
2023-02-24T19:33:37.825Z,39.75
2023-02-24T19:36:41.308Z,40.33
2023-02-24T19:39:43.602Z,41.20
2023-02-24T19:42:47.343Z,41.30
2023-02-24T19:45:49.630Z,38.83
2023-02-24T19:48:51.776Z,39.78
2023-02-24T19:51:55.563Z,40.15
2023-02-24T19:54:58.113Z,40.33
2023-02-24T19:58:00.363Z,39.25
2023-02-24T20:01:11.559Z,39.70
2023-02-24T20:04:13.918Z,37.15
2023-02-24T20:07:16.153Z,37.67
2023-02-24T20:10:18.393Z,39.53
2023-02-24T20:13:20.524Z,38.22
2023-02-24T20:16:27.355Z,38.97
2023-02-24T20:19:29.574Z,37.08
2023-02-24T20:22:31.878Z,37.28
2023-02-24T20:25:34.084Z,37.38
2023-02-24T20:28:36.291Z,37.33
2023-02-24T20:31:39.369Z,35.50
2023-02-24T20:34:41.945Z,36.10
2023-02-24T20:37:44.156Z,35.95
2023-02-24T20:40:55.608Z,37.08
2023-02-24T20:43:57.877Z,36.40
2023-02-24T20:47:00.145Z,37.90
2023-02-24T20:50:03.375Z,35.30
2023-02-24T20:53:07.922Z,36.75
2023-02-24T20:56:19.776Z,35.88
2023-02-24T20:59:22.525Z,35.60
2023-02-24T21:02:24.741Z,39.13
2023-02-24T21:05:27.831Z,37.53
2023-02-24T21:08:30.301Z,37.08
2023-02-24T21:11:33.091Z,36.67
2023-02-24T21:14:35.386Z,37.25
2023-02-24T21:17:38.428Z,35.20
2023-02-24T21:20:40.563Z,35.42
2023-02-24T21:23:43.934Z,36.67
2023-02-24T21:26:47.524Z,36.10
2023-02-24T21:29:49.842Z,37.47
2023-02-24T21:32:52.050Z,38.08
2023-02-24T21:35:59.182Z,36.60
2023-02-24T21:39:01.278Z,35.00
2023-02-24T21:42:03.409Z,36.30
2023-02-24T21:45:09.980Z,34.85
2023-02-24T21:48:12.159Z,37.40
2023-02-24T21:51:14.584Z,37.70
2023-02-24T21:54:18.365Z,36.42
2023-02-24T21:57:21.015Z,35.95
2023-02-24T22:00:24.207Z,37.97
2023-02-24T22:03:26.410Z,37.28
2023-02-24T22:06:32.090Z,36.85
2023-02-24T22:09:34.546Z,34.72
2023-02-24T22:12:36.710Z,34.10
2023-02-24T22:15:39.267Z,35.00
2023-02-24T22:18:41.624Z,35.47
2023-02-24T22:21:43.870Z,36.85
2023-02-24T22:24:46.160Z,35.45
2023-02-24T22:27:48.228Z,35.00
2023-02-24T22:30:57.840Z,36.45
2023-02-24T22:34:00.999Z,34.78
2023-02-24T22:37:03.320Z,34.03
2023-02-24T22:40:06.062Z,33.45
2023-02-24T22:43:08.812Z,35.20
2023-02-24T22:46:17.652Z,34.72
2023-02-24T22:49:19.896Z,32.45
2023-02-24T22:52:22.196Z,34.47
2023-02-24T22:55:25.247Z,33.35
2023-02-24T22:58:28.123Z,33.67
2023-02-24T23:01:33.247Z,33.70
2023-02-24T23:04:35.583Z,33.95
2023-02-24T23:07:37.691Z,35.42
2023-02-24T23:10:39.853Z,37.88
2023-02-24T23:13:44.821Z,37.58
2023-02-24T23:16:54.748Z,34.63
2023-02-24T23:19:58.818Z,32.25
2023-02-24T23:23:01.919Z,33.78
2023-02-24T23:26:05.545Z,33.13
2023-02-24T23:29:08.197Z,33.25
2023-02-24T23:32:10.514Z,32.30
2023-02-24T23:35:13.509Z,30.35
2023-02-24T23:38:16.560Z,36.08
2023-02-24T23:41:18.794Z,36.90
2023-02-24T23:44:21.507Z,36.28
2023-02-24T23:47:23.790Z,32.72
2023-02-24T23:50:26.315Z,35.20
2023-02-24T23:53:28.563Z,35.58
2023-02-24T23:56:30.801Z,34.70
2023-02-24T23:59:33.055Z,37.90
